Decoded Metar for OITR (ORUMIEH in IRAN) (IATA:N/A) | Meteo·Mobile Aviation Weather
aviador You're here:

OITR Decoded Metar

ORUMIEH in IRAN
Report Time2018-12-11 01:50:00
UTC Time2018-12-11 02:30:24
Flight Rules vfr VFR
Wind160° at 04 kt
W.Decomp.*RWY 21: 2.4 kt HW 3.2 kt LCW
W.Rank160° ranks 35
Current wind is below 160° avg. (6.0)
Visibility9999 m
Phenomena:N/A
Clouds:N/A
Expected CloudBase > 800 ft AGL from Temp-Dew spread
CeilingNone
Temp-2°C (ISA -8)
Dew Point-4°C (86% RH)
AAT-5.9°C
QNH1018 hPa
Density Alt3,186 ft
Elevation4,304 ft
Report Wrong Elevation
Raw Report
OITR 110150Z 16004KT CAVOK M02/M04 Q1018=

Extra information for OITR:More info

Metar Taf Metar & Taf Last 4 Metars F.Rules Stats Wind Profile Meteogram Temp Stats Airport Information Weather charts Add Link Nearby VenuesMetar ALERT Operation Metar Decoded Social comments